createdAt,value
2018-01-25T00:00:40.613Z,8.00
2018-01-25T00:01:40.632Z,8.00
2018-01-25T00:02:40.653Z,8.00
2018-01-25T00:03:40.674Z,4.00
2018-01-25T00:04:40.697Z,8.00
2018-01-25T00:05:40.714Z,4.00
2018-01-25T00:06:40.735Z,8.00
2018-01-25T00:07:40.755Z,8.00
2018-01-25T00:08:40.775Z,8.00
2018-01-25T00:09:40.796Z,8.00
2018-01-25T00:10:40.815Z,8.00
2018-01-25T00:11:40.987Z,8.00
2018-01-25T00:12:40.856Z,8.00
2018-01-25T00:13:40.876Z,8.00
2018-01-25T00:14:40.897Z,8.00
2018-01-25T00:15:40.917Z,8.00
2018-01-25T00:16:40.937Z,8.00
2018-01-25T00:17:40.956Z,8.00
2018-01-25T00:18:40.978Z,8.00
2018-01-25T00:19:40.998Z,8.00
2018-01-25T00:20:41.017Z,8.00
2018-01-25T00:21:41.037Z,4.00
2018-01-25T00:22:41.057Z,4.00
2018-01-25T00:23:41.077Z,8.00
2018-01-25T00:24:41.096Z,4.00
2018-01-25T00:25:41.115Z,4.00
2018-01-25T00:26:41.136Z,4.00
2018-01-25T00:27:41.156Z,4.00
2018-01-25T00:28:41.174Z,4.00
2018-01-25T00:29:41.194Z,4.00
2018-01-25T00:30:41.213Z,4.00
2018-01-25T00:31:41.233Z,4.00
2018-01-25T00:32:41.255Z,4.00
2018-01-25T00:33:41.271Z,4.00
2018-01-25T00:34:41.291Z,4.00
2018-01-25T00:35:41.309Z,4.00
2018-01-25T00:36:41.328Z,4.00
2018-01-25T00:37:41.348Z,4.00
2018-01-25T00:38:41.366Z,4.00
2018-01-25T00:39:41.386Z,4.00
2018-01-25T00:40:41.405Z,4.00
2018-01-25T00:41:41.423Z,4.00
2018-01-25T00:42:41.442Z,4.00
2018-01-25T00:43:41.462Z,4.00
2018-01-25T00:44:41.480Z,4.00
2018-01-25T00:45:41.499Z,4.00
2018-01-25T00:46:41.518Z,4.00
2018-01-25T00:47:41.537Z,4.00
2018-01-25T00:48:41.555Z,4.00
2018-01-25T00:49:41.574Z,8.00
2018-01-25T00:50:41.593Z,4.00
2018-01-25T00:51:41.612Z,4.00
2018-01-25T00:52:41.630Z,4.00
2018-01-25T00:53:41.674Z,4.00
2018-01-25T00:54:41.667Z,4.00
2018-01-25T00:55:41.687Z,4.00
2018-01-25T00:56:41.705Z,4.00
2018-01-25T00:57:41.724Z,8.00
2018-01-25T00:58:41.742Z,4.00
2018-01-25T00:59:41.761Z,4.00
2018-01-25T01:00:41.779Z,8.00
2018-01-25T01:01:41.798Z,4.00
2018-01-25T01:02:41.817Z,4.00
2018-01-25T01:03:41.836Z,4.00
2018-01-25T01:04:41.854Z,8.00
2018-01-25T01:05:41.873Z,8.00
2018-01-25T01:06:41.892Z,4.00
2018-01-25T01:07:41.911Z,4.00
2018-01-25T01:08:41.928Z,4.00
2018-01-25T01:09:41.947Z,4.00
2018-01-25T01:10:41.966Z,8.00
2018-01-25T01:11:41.984Z,8.00
2018-01-25T01:12:42.002Z,8.00
2018-01-25T01:13:42.022Z,4.00
2018-01-25T01:14:42.040Z,4.00
2018-01-25T01:15:42.058Z,4.00
2018-01-25T01:16:42.076Z,4.00
2018-01-25T01:17:42.095Z,4.00
2018-01-25T01:18:42.114Z,4.00
2018-01-25T01:19:42.133Z,4.00
2018-01-25T01:20:42.151Z,4.00
2018-01-25T01:21:42.171Z,4.00
2018-01-25T01:22:42.188Z,4.00
2018-01-25T01:23:42.207Z,4.00
2018-01-25T01:24:42.225Z,4.00
2018-01-25T01:25:42.244Z,4.00
2018-01-25T01:26:42.262Z,4.00
2018-01-25T01:27:42.281Z,4.00
2018-01-25T01:28:42.299Z,4.00
2018-01-25T01:29:42.318Z,4.00
2018-01-25T01:30:42.337Z,4.00
2018-01-25T01:31:42.355Z,4.00
2018-01-25T01:32:42.372Z,4.00
2018-01-25T01:33:42.392Z,8.00
2018-01-25T01:34:42.412Z,4.00
2018-01-25T01:35:42.429Z,4.00
2018-01-25T01:36:42.447Z,4.00
2018-01-25T01:37:42.469Z,4.00
2018-01-25T01:38:42.484Z,4.00
2018-01-25T01:39:42.504Z,4.00
2018-01-25T01:40:42.521Z,4.00
2018-01-25T01:41:42.540Z,4.00
2018-01-25T01:42:42.559Z,4.00
2018-01-25T01:43:42.578Z,4.00
2018-01-25T01:44:42.596Z,4.00
2018-01-25T01:45:42.614Z,4.00
2018-01-25T01:46:42.633Z,4.00
2018-01-25T01:47:42.652Z,4.00
2018-01-25T01:48:42.670Z,4.00
2018-01-25T01:49:42.688Z,4.00
2018-01-25T01:50:42.708Z,4.00
2018-01-25T01:51:42.727Z,8.00
2018-01-25T01:52:42.744Z,4.00
2018-01-25T01:53:42.764Z,4.00
2018-01-25T01:54:42.782Z,4.00
2018-01-25T01:55:42.800Z,4.00
2018-01-25T01:56:42.819Z,4.00
2018-01-25T01:57:42.837Z,4.00
2018-01-25T01:58:42.855Z,4.00
2018-01-25T01:59:42.874Z,4.00
2018-01-25T02:00:42.892Z,4.00
2018-01-25T02:01:42.911Z,4.00
2018-01-25T02:02:42.930Z,4.00
2018-01-25T02:03:42.948Z,4.00
2018-01-25T02:04:42.966Z,4.00
2018-01-25T02:05:42.985Z,4.00
2018-01-25T02:06:43.003Z,4.00
2018-01-25T02:07:43.022Z,4.00
2018-01-25T02:08:43.039Z,4.00
2018-01-25T02:09:43.059Z,4.00
2018-01-25T02:10:43.078Z,4.00
2018-01-25T02:11:43.096Z,4.00
2018-01-25T02:12:43.114Z,4.00
2018-01-25T02:13:43.133Z,4.00
2018-01-25T02:14:43.154Z,4.00
2018-01-25T02:15:43.170Z,4.00
2018-01-25T02:16:43.188Z,4.00
2018-01-25T02:17:43.207Z,4.00
2018-01-25T02:18:43.225Z,4.00
2018-01-25T02:19:43.244Z,4.00
2018-01-25T02:20:43.262Z,4.00
2018-01-25T02:21:43.281Z,4.00
2018-01-25T02:22:43.301Z,4.00
2018-01-25T02:23:43.325Z,4.00
2018-01-25T02:24:43.436Z,4.00
2018-01-25T02:25:43.357Z,4.00
2018-01-25T02:26:43.373Z,4.00
2018-01-25T02:27:43.392Z,4.00
2018-01-25T02:28:43.408Z,4.00
2018-01-25T02:29:43.428Z,4.00
2018-01-25T02:30:43.447Z,4.00
2018-01-25T02:31:43.466Z,4.00
2018-01-25T02:32:43.483Z,4.00
2018-01-25T02:33:43.502Z,4.00
2018-01-25T02:34:43.521Z,4.00
2018-01-25T02:35:43.539Z,4.00
2018-01-25T02:36:43.557Z,4.00
2018-01-25T02:37:43.576Z,4.00
2018-01-25T02:38:43.595Z,4.00
2018-01-25T02:39:43.614Z,4.00
2018-01-25T02:40:43.631Z,4.00
2018-01-25T02:41:43.650Z,4.00
2018-01-25T02:42:43.672Z,4.00
2018-01-25T02:43:43.688Z,4.00
2018-01-25T02:44:43.705Z,4.00
2018-01-25T02:45:43.724Z,4.00
2018-01-25T02:46:43.742Z,4.00
2018-01-25T02:47:43.762Z,4.00
2018-01-25T02:48:43.779Z,4.00
2018-01-25T02:49:43.804Z,4.00
2018-01-25T02:50:43.817Z,4.00
2018-01-25T02:51:43.837Z,4.00
2018-01-25T02:52:43.853Z,4.00
2018-01-25T02:53:43.873Z,4.00
2018-01-25T02:54:43.891Z,4.00
2018-01-25T02:55:43.910Z,4.00
2018-01-25T02:56:43.927Z,4.00
2018-01-25T02:57:43.946Z,4.00
2018-01-25T02:58:43.965Z,4.00
2018-01-25T02:59:43.984Z,4.00
2018-01-25T03:00:44.002Z,4.00
2018-01-25T03:01:44.020Z,4.00
2018-01-25T03:02:44.039Z,4.00
2018-01-25T03:03:44.058Z,4.00
2018-01-25T03:04:44.076Z,4.00
2018-01-25T03:05:44.095Z,4.00
2018-01-25T03:06:44.113Z,4.00
2018-01-25T03:07:44.132Z,4.00
2018-01-25T03:08:44.150Z,4.00
2018-01-25T03:09:44.168Z,4.00
2018-01-25T03:10:44.337Z,4.00
2018-01-25T03:11:44.206Z,4.00
2018-01-25T03:12:44.223Z,4.00
2018-01-25T03:13:44.242Z,4.00
2018-01-25T03:14:44.261Z,8.00
2018-01-25T03:15:44.280Z,4.00
2018-01-25T03:16:44.298Z,4.00
2018-01-25T03:17:44.316Z,4.00
2018-01-25T03:18:44.335Z,4.00
2018-01-25T03:19:44.357Z,4.00
2018-01-25T03:20:44.371Z,4.00
2018-01-25T03:21:44.390Z,4.00
2018-01-25T03:22:44.409Z,4.00
2018-01-25T03:23:44.478Z,4.00
2018-01-25T03:24:44.445Z,4.00
2018-01-25T03:25:44.464Z,4.00
2018-01-25T03:26:44.483Z,4.00
2018-01-25T03:27:44.501Z,4.00
2018-01-25T03:28:44.518Z,4.00
2018-01-25T03:29:44.537Z,4.00
2018-01-25T03:30:44.556Z,4.00
2018-01-25T03:31:44.574Z,4.00
2018-01-25T03:32:44.592Z,4.00
2018-01-25T03:33:44.614Z,4.00
2018-01-25T03:34:44.630Z,4.00
2018-01-25T03:35:44.648Z,4.00
2018-01-25T03:36:44.816Z,4.00
2018-01-25T03:37:44.685Z,4.00
2018-01-25T03:38:44.703Z,4.00
2018-01-25T03:39:44.722Z,4.00
2018-01-25T03:40:44.739Z,4.00
2018-01-25T03:41:44.907Z,4.00
2018-01-25T03:42:44.776Z,4.00
2018-01-25T03:43:44.795Z,4.00
2018-01-25T03:44:44.813Z,4.00
2018-01-25T03:45:44.831Z,4.00
2018-01-25T03:46:44.850Z,4.00
2018-01-25T03:47:44.869Z,4.00
2018-01-25T03:48:44.887Z,4.00
2018-01-25T03:49:44.905Z,4.00
2018-01-25T03:50:44.924Z,4.00
2018-01-25T03:51:44.943Z,4.00
2018-01-25T03:52:44.961Z,4.00
2018-01-25T03:53:44.985Z,4.00
2018-01-25T03:54:44.997Z,4.00
2018-01-25T03:55:45.022Z,4.00
2018-01-25T03:56:45.035Z,4.00
2018-01-25T03:57:45.053Z,4.00
2018-01-25T03:58:45.072Z,4.00
2018-01-25T03:59:45.090Z,4.00
2018-01-25T04:00:45.108Z,4.00
2018-01-25T04:01:45.126Z,4.00
2018-01-25T04:02:45.145Z,4.00
2018-01-25T04:03:45.165Z,4.00
2018-01-25T04:04:45.181Z,4.00
2018-01-25T04:05:45.200Z,4.00
2018-01-25T04:06:45.219Z,4.00
2018-01-25T04:07:45.238Z,4.00
2018-01-25T04:08:45.255Z,4.00
2018-01-25T04:09:45.274Z,4.00
2018-01-25T04:10:45.293Z,4.00
2018-01-25T04:11:45.312Z,4.00
2018-01-25T04:12:45.330Z,4.00
2018-01-25T04:13:45.348Z,4.00
2018-01-25T04:14:45.366Z,4.00
2018-01-25T04:15:45.385Z,4.00
2018-01-25T04:16:45.402Z,4.00
2018-01-25T04:17:45.425Z,4.00
2018-01-25T04:18:45.440Z,4.00
2018-01-25T04:19:45.460Z,4.00
2018-01-25T04:20:45.476Z,4.00
2018-01-25T04:21:45.645Z,4.00
2018-01-25T04:22:45.514Z,4.00
2018-01-25T04:23:45.532Z,4.00
2018-01-25T04:24:45.550Z,4.00
2018-01-25T04:25:45.569Z,4.00
2018-01-25T04:26:45.587Z,4.00
2018-01-25T04:27:45.606Z,4.00
2018-01-25T04:28:45.624Z,4.00
2018-01-25T04:29:45.642Z,4.00
2018-01-25T04:30:45.661Z,4.00
2018-01-25T04:31:45.680Z,4.00
2018-01-25T04:32:45.697Z,4.00
2018-01-25T04:33:45.716Z,8.00
2018-01-25T04:34:45.734Z,4.00
2018-01-25T04:35:45.753Z,4.00
2018-01-25T04:36:45.771Z,4.00
2018-01-25T04:37:45.789Z,4.00
2018-01-25T04:38:45.808Z,4.00
2018-01-25T04:39:45.826Z,4.00
2018-01-25T04:40:45.845Z,4.00
2018-01-25T04:41:45.862Z,4.00
2018-01-25T04:42:45.881Z,4.00
2018-01-25T04:43:45.900Z,4.00
2018-01-25T04:44:45.917Z,4.00
2018-01-25T04:45:45.936Z,4.00
2018-01-25T04:46:45.955Z,4.00
2018-01-25T04:47:45.974Z,4.00
2018-01-25T04:48:45.991Z,4.00
2018-01-25T04:49:46.010Z,4.00
2018-01-25T04:50:46.028Z,4.00
2018-01-25T04:51:46.047Z,4.00
2018-01-25T04:52:46.064Z,4.00
2018-01-25T04:53:46.083Z,4.00
2018-01-25T04:54:46.102Z,4.00
2018-01-25T04:55:46.120Z,4.00
2018-01-25T04:56:46.138Z,4.00
2018-01-25T04:57:46.156Z,4.00
2018-01-25T04:58:46.175Z,4.00
2018-01-25T04:59:46.194Z,4.00
2018-01-25T05:00:46.211Z,4.00
2018-01-25T05:01:46.229Z,4.00
2018-01-25T05:02:46.248Z,4.00
2018-01-25T05:03:46.267Z,4.00
2018-01-25T05:04:46.284Z,4.00
2018-01-25T05:05:46.303Z,4.00
2018-01-25T05:06:46.321Z,4.00
2018-01-25T05:07:46.340Z,4.00
2018-01-25T05:08:46.358Z,4.00
2018-01-25T05:09:46.376Z,4.00
2018-01-25T05:10:46.395Z,4.00
2018-01-25T05:11:46.413Z,4.00
2018-01-25T05:12:46.431Z,4.00
2018-01-25T05:13:46.449Z,4.00
2018-01-25T05:14:46.468Z,4.00
2018-01-25T05:15:46.487Z,4.00
2018-01-25T05:16:46.504Z,4.00
2018-01-25T05:17:46.523Z,4.00
2018-01-25T05:18:46.541Z,4.00
2018-01-25T05:19:46.560Z,4.00
2018-01-25T05:20:46.577Z,4.00
2018-01-25T05:21:46.596Z,4.00
2018-01-25T05:22:46.614Z,4.00
2018-01-25T05:23:46.633Z,4.00
2018-01-25T05:24:46.650Z,4.00
2018-01-25T05:25:46.669Z,4.00
2018-01-25T05:26:46.688Z,4.00
2018-01-25T05:27:46.705Z,4.00
2018-01-25T05:28:46.724Z,4.00
2018-01-25T05:29:46.742Z,4.00
2018-01-25T05:30:47.011Z,4.00
2018-01-25T05:31:46.783Z,4.00
2018-01-25T05:32:46.796Z,4.00
2018-01-25T05:33:46.815Z,4.00
2018-01-25T05:34:46.833Z,4.00
2018-01-25T05:35:46.851Z,4.00
2018-01-25T05:36:46.869Z,4.00
2018-01-25T05:37:46.887Z,4.00
2018-01-25T05:38:46.906Z,4.00
2018-01-25T05:39:46.924Z,4.00
2018-01-25T05:40:46.945Z,4.00
2018-01-25T05:41:46.964Z,4.00
2018-01-25T05:42:46.979Z,4.00
2018-01-25T05:43:46.997Z,4.00
2018-01-25T05:44:47.015Z,4.00
2018-01-25T05:45:47.033Z,4.00
2018-01-25T05:46:47.052Z,4.00
2018-01-25T05:47:47.071Z,4.00
2018-01-25T05:48:47.088Z,4.00
2018-01-25T05:49:47.107Z,4.00
2018-01-25T05:50:47.125Z,4.00
2018-01-25T05:51:47.144Z,4.00
2018-01-25T05:52:47.159Z,4.00
2018-01-25T05:53:47.179Z,4.00
2018-01-25T05:54:47.197Z,8.00
2018-01-25T05:55:47.217Z,4.00
2018-01-25T05:56:47.239Z,4.00
2018-01-25T05:57:47.252Z,4.00
2018-01-25T05:58:47.271Z,4.00
2018-01-25T05:59:47.292Z,4.00
2018-01-25T06:00:47.307Z,4.00
2018-01-25T06:01:47.325Z,4.00
2018-01-25T06:02:47.344Z,4.00
2018-01-25T06:03:47.363Z,4.00
2018-01-25T06:04:47.380Z,4.00
2018-01-25T06:05:47.399Z,4.00
2018-01-25T06:06:47.419Z,4.00
2018-01-25T06:07:47.435Z,4.00
2018-01-25T06:08:47.453Z,4.00
2018-01-25T06:09:47.471Z,4.00
2018-01-25T06:10:47.492Z,8.00
2018-01-25T06:11:47.509Z,4.00
2018-01-25T06:12:47.526Z,4.00
2018-01-25T06:13:47.545Z,4.00
2018-01-25T06:14:47.563Z,4.00
2018-01-25T06:15:47.582Z,4.00
2018-01-25T06:16:47.600Z,4.00
2018-01-25T06:17:47.618Z,4.00
2018-01-25T06:18:47.636Z,4.00
2018-01-25T06:19:47.656Z,4.00
2018-01-25T06:20:47.672Z,4.00
2018-01-25T06:21:47.692Z,4.00
2018-01-25T06:22:47.711Z,4.00
2018-01-25T06:23:47.726Z,4.00
2018-01-25T06:24:47.745Z,4.00
2018-01-25T06:25:47.764Z,4.00
2018-01-25T06:26:47.781Z,4.00
2018-01-25T06:27:47.800Z,8.00
2018-01-25T06:28:47.822Z,4.00
2018-01-25T06:29:47.837Z,4.00
2018-01-25T06:30:47.855Z,4.00
2018-01-25T06:31:47.874Z,4.00
2018-01-25T06:32:47.895Z,4.00
2018-01-25T06:33:47.910Z,4.00
2018-01-25T06:34:48.087Z,4.00
2018-01-25T06:35:47.947Z,4.00
2018-01-25T06:36:47.964Z,8.00
2018-01-25T06:37:47.983Z,4.00
2018-01-25T06:38:48.001Z,8.00
2018-01-25T06:39:48.020Z,8.00
2018-01-25T06:40:48.042Z,8.00
2018-01-25T06:41:48.055Z,4.00
2018-01-25T06:42:48.075Z,4.00
2018-01-25T06:43:48.093Z,8.00
2018-01-25T06:44:48.109Z,8.00
2018-01-25T06:45:48.128Z,8.00
2018-01-25T06:46:48.146Z,8.00
2018-01-25T06:47:48.165Z,8.00
2018-01-25T06:48:48.183Z,8.00
2018-01-25T06:49:48.201Z,8.00
2018-01-25T06:50:48.219Z,8.00
2018-01-25T06:51:48.237Z,8.00
2018-01-25T06:52:48.254Z,8.00
2018-01-25T06:53:48.274Z,8.00
2018-01-25T06:54:48.292Z,8.00
2018-01-25T06:55:48.311Z,8.00
2018-01-25T06:56:48.327Z,12.00
2018-01-25T06:57:48.346Z,8.00
2018-01-25T06:58:48.366Z,8.00
2018-01-25T06:59:48.383Z,12.00
2018-01-25T07:00:48.400Z,12.00
2018-01-25T07:01:48.419Z,12.00
2018-01-25T07:02:48.437Z,12.00
2018-01-25T07:03:48.455Z,16.00
2018-01-25T07:04:48.473Z,16.00
2018-01-25T07:05:48.499Z,20.00
2018-01-25T07:06:48.510Z,20.00
2018-01-25T07:07:48.528Z,16.00
2018-01-25T07:08:48.546Z,20.00
2018-01-25T07:09:48.563Z,24.00
2018-01-25T07:10:48.581Z,28.00
2018-01-25T07:11:48.600Z,28.00
2018-01-25T07:12:48.618Z,32.00
2018-01-25T07:13:48.636Z,36.00
2018-01-25T07:14:48.658Z,40.00
2018-01-25T07:15:48.673Z,40.00
2018-01-25T07:16:48.691Z,48.00
2018-01-25T07:17:48.708Z,52.00
2018-01-25T07:18:48.727Z,56.00
2018-01-25T07:19:48.745Z,64.00
2018-01-25T07:20:48.763Z,64.00
2018-01-25T07:21:48.781Z,72.00
2018-01-25T07:22:48.798Z,76.00
2018-01-25T07:23:48.817Z,84.00
2018-01-25T07:24:48.835Z,88.00
2018-01-25T07:25:48.856Z,96.00
2018-01-25T07:26:48.872Z,100.00
2018-01-25T07:27:48.937Z,108.00
2018-01-25T07:28:48.908Z,124.00
2018-01-25T07:29:48.925Z,132.00
2018-01-25T07:30:48.996Z,148.00
2018-01-25T07:31:48.963Z,164.00
2018-01-25T07:32:48.980Z,172.00
2018-01-25T07:33:48.998Z,184.00
2018-01-25T07:34:49.016Z,200.00
2018-01-25T07:35:49.185Z,212.00
2018-01-25T07:36:49.052Z,228.00
2018-01-25T07:37:49.070Z,244.00
2018-01-25T07:38:49.089Z,256.00
2018-01-25T07:39:49.107Z,276.00
2018-01-25T07:40:49.128Z,288.00
2018-01-25T07:41:49.143Z,304.00
2018-01-25T07:42:49.162Z,320.00
2018-01-25T07:43:49.179Z,336.00
2018-01-25T07:44:49.197Z,356.00
2018-01-25T07:45:49.216Z,368.00
2018-01-25T07:46:49.234Z,380.00
2018-01-25T07:47:49.252Z,400.00
2018-01-25T07:48:49.313Z,412.00
2018-01-25T07:49:49.288Z,424.00
2018-01-25T07:50:49.306Z,444.00
2018-01-25T07:51:49.324Z,468.00
2018-01-25T07:52:49.392Z,492.00
2018-01-25T07:53:49.359Z,524.00
2018-01-25T07:54:49.679Z,556.00
2018-01-25T07:55:49.396Z,584.00
2018-01-25T07:56:49.414Z,608.00
2018-01-25T07:57:49.433Z,632.00
2018-01-25T07:58:49.450Z,656.00
2018-01-25T07:59:49.469Z,680.00
2018-01-25T08:00:49.486Z,700.00
2018-01-25T08:01:49.505Z,712.00
2018-01-25T08:02:49.523Z,732.00
2018-01-25T08:03:49.541Z,752.00
2018-01-25T08:04:49.559Z,772.00
2018-01-25T08:05:49.577Z,792.00
2018-01-25T08:06:49.596Z,816.00
2018-01-25T08:07:49.613Z,852.00
2018-01-25T08:08:49.631Z,888.00
2018-01-25T08:09:49.649Z,924.00
2018-01-25T08:10:49.668Z,960.00
2018-01-25T08:11:49.686Z,988.00
2018-01-25T08:12:49.704Z,1016.00
2018-01-25T08:13:49.722Z,1048.00
2018-01-25T08:14:49.740Z,1076.00
2018-01-25T08:15:49.759Z,1108.00
2018-01-25T08:16:49.776Z,1136.00
2018-01-25T08:17:50.046Z,1140.00
2018-01-25T08:18:49.812Z,1132.00
2018-01-25T08:19:49.831Z,1136.00
2018-01-25T08:20:49.850Z,1156.00
2018-01-25T08:21:50.018Z,1200.00
2018-01-25T08:22:49.886Z,1252.00
2018-01-25T08:23:49.906Z,1288.00
2018-01-25T08:24:49.921Z,1320.00
2018-01-25T08:25:49.940Z,1364.00
2018-01-25T08:26:49.958Z,1412.00
2018-01-25T08:27:49.977Z,1460.00
2018-01-25T08:28:49.995Z,1504.00
2018-01-25T08:29:50.013Z,1552.00
2018-01-25T08:30:50.031Z,1600.00
2018-01-25T08:31:50.049Z,1636.00
2018-01-25T08:32:50.067Z,1668.00
2018-01-25T08:33:50.086Z,1700.00
2018-01-25T08:34:50.107Z,1740.00
2018-01-25T08:35:50.123Z,1744.00
2018-01-25T08:36:50.143Z,1748.00
2018-01-25T08:37:50.159Z,1752.00
2018-01-25T08:38:50.228Z,1768.00
2018-01-25T08:39:50.198Z,1788.00
2018-01-25T08:40:50.213Z,1816.00
2018-01-25T08:41:50.253Z,1844.00
2018-01-25T08:42:50.254Z,1876.00
2018-01-25T08:43:50.269Z,1888.00
2018-01-25T08:44:50.286Z,1904.00
2018-01-25T08:45:50.305Z,1904.00
2018-01-25T08:46:50.323Z,1904.00
2018-01-25T08:47:50.342Z,1920.00
2018-01-25T08:48:50.360Z,1936.00
2018-01-25T08:49:50.378Z,1912.00
2018-01-25T08:50:50.397Z,1872.00
2018-01-25T08:51:50.417Z,1808.00
2018-01-25T08:52:50.433Z,1768.00
2018-01-25T08:53:50.452Z,1780.00
2018-01-25T08:54:50.471Z,1792.00
2018-01-25T08:55:50.489Z,1796.00
2018-01-25T08:56:50.507Z,1812.00
2018-01-25T08:57:50.529Z,1820.00
2018-01-25T08:58:50.545Z,1880.00
2018-01-25T08:59:50.563Z,1916.00
2018-01-25T09:00:50.581Z,1928.00
2018-01-25T09:01:50.600Z,1928.00
2018-01-25T09:02:50.618Z,1936.00
2018-01-25T09:03:50.637Z,1964.00
2018-01-25T09:04:50.654Z,1992.00
2018-01-25T09:05:50.674Z,2036.00
2018-01-25T09:06:50.698Z,2132.00
2018-01-25T09:07:50.711Z,2248.00
2018-01-25T09:08:50.729Z,2316.00
2018-01-25T09:09:50.747Z,2368.00
2018-01-25T09:10:50.766Z,2400.00
2018-01-25T09:11:50.785Z,2432.00
2018-01-25T09:12:51.054Z,2464.00
2018-01-25T09:13:50.822Z,2468.00
2018-01-25T09:14:50.840Z,2456.00
2018-01-25T09:15:50.859Z,2428.00
2018-01-25T09:16:50.876Z,2400.00
2018-01-25T09:17:50.897Z,2356.00
2018-01-25T09:18:50.914Z,2268.00
2018-01-25T09:19:50.933Z,2064.00
2018-01-25T09:20:50.951Z,1760.00
2018-01-25T09:21:50.969Z,1564.00
2018-01-25T09:22:51.189Z,1472.00
2018-01-25T09:23:51.007Z,1488.00
2018-01-25T09:24:51.026Z,1580.00
2018-01-25T09:25:51.044Z,1732.00
2018-01-25T09:26:51.062Z,1852.00
2018-01-25T09:27:51.080Z,1932.00
2018-01-25T09:28:51.099Z,1984.00
2018-01-25T09:29:51.118Z,1996.00
2018-01-25T09:30:51.137Z,2020.00
2018-01-25T09:31:51.157Z,2020.00
2018-01-25T09:32:51.174Z,1924.00
2018-01-25T09:33:51.191Z,1812.00
2018-01-25T09:34:51.212Z,1804.00
2018-01-25T09:35:51.230Z,1820.00
2018-01-25T09:36:51.248Z,1820.00
2018-01-25T09:37:51.267Z,1904.00
2018-01-25T09:38:51.286Z,2028.00
2018-01-25T09:39:51.304Z,2036.00
2018-01-25T09:40:51.323Z,2004.00
2018-01-25T09:41:51.342Z,2012.00
2018-01-25T09:42:51.360Z,2124.00
2018-01-25T09:43:51.379Z,2208.00
2018-01-25T09:44:51.397Z,2264.00
2018-01-25T09:45:51.416Z,2368.00
2018-01-25T09:46:51.435Z,2488.00
2018-01-25T09:47:51.454Z,2564.00
2018-01-25T09:48:51.472Z,2584.00
2018-01-25T09:49:51.491Z,2664.00
2018-01-25T09:50:51.510Z,2688.00
2018-01-25T09:51:51.529Z,2648.00
2018-01-25T09:52:51.547Z,2652.00
2018-01-25T09:53:51.567Z,2760.00
2018-01-25T09:54:51.585Z,2924.00
2018-01-25T09:55:51.607Z,3000.00
2018-01-25T09:56:51.655Z,3056.00
2018-01-25T09:57:51.641Z,3048.00
2018-01-25T09:58:51.663Z,3068.00
2018-01-25T09:59:51.679Z,3052.00
2018-01-25T10:00:51.697Z,3036.00
2018-01-25T10:01:51.718Z,3036.00
2018-01-25T10:02:51.734Z,3040.00
2018-01-25T10:03:51.755Z,3060.00
2018-01-25T10:04:51.772Z,3076.00
2018-01-25T10:05:51.793Z,3092.00
2018-01-25T10:06:51.810Z,3124.00
2018-01-25T10:07:51.829Z,3124.00
2018-01-25T10:08:51.852Z,3156.00
2018-01-25T10:09:51.867Z,3200.00
2018-01-25T10:10:51.887Z,3260.00
2018-01-25T10:11:51.907Z,3300.00
2018-01-25T10:12:51.925Z,3332.00
2018-01-25T10:13:51.942Z,3360.00
2018-01-25T10:14:51.961Z,3384.00
2018-01-25T10:15:51.983Z,3436.00
2018-01-25T10:16:51.998Z,3368.00
2018-01-25T10:17:52.107Z,3400.00
2018-01-25T10:18:52.037Z,3368.00
2018-01-25T10:19:52.056Z,3404.00
2018-01-25T10:20:52.074Z,3388.00
2018-01-25T10:21:52.095Z,3388.00
2018-01-25T10:22:52.112Z,3348.00
2018-01-25T10:23:52.180Z,3368.00
2018-01-25T10:24:52.150Z,3280.00
2018-01-25T10:25:52.169Z,3308.00
2018-01-25T10:26:52.188Z,3304.00
2018-01-25T10:27:52.358Z,3192.00
2018-01-25T10:28:52.233Z,3524.00
2018-01-25T10:29:52.245Z,3612.00
2018-01-25T10:30:52.565Z,3552.00
2018-01-25T10:31:52.284Z,3636.00
2018-01-25T10:32:52.303Z,3672.00
2018-01-25T10:33:52.321Z,3692.00
2018-01-25T10:34:52.340Z,3668.00
2018-01-25T10:35:52.359Z,3708.00
2018-01-25T10:36:52.377Z,3692.00
2018-01-25T10:37:52.396Z,3752.00
2018-01-25T10:38:52.417Z,3728.00
2018-01-25T10:39:52.437Z,3692.00
2018-01-25T10:40:52.453Z,3724.00
2018-01-25T10:41:52.473Z,3716.00
2018-01-25T10:42:52.492Z,3724.00
2018-01-25T10:43:52.513Z,3708.00
2018-01-25T10:44:52.530Z,3564.00
2018-01-25T10:45:52.762Z,3600.00
2018-01-25T10:46:52.569Z,3680.00
2018-01-25T10:47:52.587Z,3624.00
2018-01-25T10:48:52.609Z,3636.00
2018-01-25T10:49:52.632Z,3760.00
2018-01-25T10:50:52.645Z,3752.00
2018-01-25T10:51:52.664Z,3644.00
2018-01-25T10:52:52.682Z,3688.00
2018-01-25T10:53:52.702Z,3716.00
2018-01-25T10:54:52.727Z,3724.00
2018-01-25T10:55:52.780Z,3696.00
2018-01-25T10:56:52.759Z,3564.00
2018-01-25T10:57:52.779Z,3384.00
2018-01-25T10:58:52.804Z,3464.00
2018-01-25T10:59:52.816Z,3576.00
2018-01-25T11:00:52.836Z,3532.00
2018-01-25T11:01:52.856Z,3584.00
2018-01-25T11:02:52.880Z,3332.00
2018-01-25T11:03:52.895Z,3380.00
2018-01-25T11:04:52.914Z,3408.00
2018-01-25T11:05:52.933Z,3452.00
2018-01-25T11:06:53.004Z,3520.00
2018-01-25T11:07:52.972Z,3548.00
2018-01-25T11:08:52.991Z,3552.00
2018-01-25T11:09:53.061Z,3376.00
2018-01-25T11:10:53.031Z,3452.00
2018-01-25T11:11:53.050Z,2992.00
2018-01-25T11:12:53.120Z,3056.00
2018-01-25T11:13:53.088Z,3648.00
2018-01-25T11:14:53.108Z,4056.00
2018-01-25T11:15:53.127Z,4180.00
2018-01-25T11:16:53.147Z,4360.00
2018-01-25T11:17:53.165Z,4256.00
2018-01-25T11:18:53.185Z,4132.00
2018-01-25T11:19:53.205Z,4308.00
2018-01-25T11:20:53.226Z,4328.00
2018-01-25T11:21:53.243Z,4308.00
2018-01-25T11:22:53.264Z,4404.00
2018-01-25T11:23:53.284Z,4192.00
2018-01-25T11:24:53.302Z,4024.00
2018-01-25T11:25:53.321Z,3972.00
2018-01-25T11:26:53.342Z,4156.00
2018-01-25T11:27:53.360Z,4036.00
2018-01-25T11:28:53.379Z,4144.00
2018-01-25T11:29:53.399Z,4200.00
2018-01-25T11:30:53.419Z,3880.00
2018-01-25T11:31:53.439Z,3372.00
2018-01-25T11:32:53.457Z,3512.00
2018-01-25T11:33:53.478Z,3568.00
2018-01-25T11:34:53.497Z,3740.00
2018-01-25T11:35:53.520Z,3960.00
2018-01-25T11:36:53.536Z,4028.00
2018-01-25T11:37:53.556Z,4052.00
2018-01-25T11:38:53.576Z,3828.00
2018-01-25T11:39:53.596Z,3680.00
2018-01-25T11:40:53.614Z,3472.00
2018-01-25T11:41:53.634Z,3452.00
2018-01-25T11:42:53.654Z,3544.00
2018-01-25T11:43:53.674Z,3656.00
2018-01-25T11:44:53.694Z,3588.00
2018-01-25T11:45:53.713Z,3624.00
2018-01-25T11:46:53.733Z,3300.00
2018-01-25T11:47:53.753Z,3308.00
2018-01-25T11:48:53.772Z,3752.00
2018-01-25T11:49:53.792Z,4088.00
2018-01-25T11:50:53.812Z,4028.00
2018-01-25T11:51:53.832Z,3728.00
2018-01-25T11:52:53.851Z,3616.00
2018-01-25T11:53:53.870Z,4168.00
2018-01-25T11:54:53.890Z,4464.00
2018-01-25T11:55:53.911Z,4432.00
2018-01-25T11:56:53.929Z,4372.00
2018-01-25T11:57:53.950Z,4400.00
2018-01-25T11:58:53.969Z,4380.00
2018-01-25T11:59:53.995Z,4120.00
2018-01-25T12:00:54.008Z,3952.00
2018-01-25T12:01:54.028Z,3832.00
2018-01-25T12:02:54.047Z,3532.00
2018-01-25T12:03:54.072Z,3560.00
2018-01-25T12:04:54.087Z,3652.00
2018-01-25T12:05:54.107Z,3616.00
2018-01-25T12:06:54.126Z,3924.00
2018-01-25T12:07:54.147Z,4172.00
2018-01-25T12:08:54.166Z,4176.00
2018-01-25T12:09:54.186Z,4324.00
2018-01-25T12:10:54.206Z,4300.00
2018-01-25T12:11:54.226Z,4332.00
2018-01-25T12:12:54.244Z,4524.00
2018-01-25T12:13:54.265Z,4592.00
2018-01-25T12:14:54.285Z,4412.00
2018-01-25T12:15:54.304Z,4308.00
2018-01-25T12:16:54.324Z,4004.00
2018-01-25T12:17:54.345Z,3560.00
2018-01-25T12:18:54.364Z,3036.00
2018-01-25T12:19:54.384Z,2864.00
2018-01-25T12:20:54.404Z,2672.00
2018-01-25T12:21:54.426Z,1896.00
2018-01-25T12:22:54.443Z,1560.00
2018-01-25T12:23:54.467Z,2260.00
2018-01-25T12:24:54.483Z,2208.00
2018-01-25T12:25:54.503Z,1792.00
2018-01-25T12:26:54.523Z,1940.00
2018-01-25T12:27:54.543Z,2032.00
2018-01-25T12:28:54.562Z,1836.00
2018-01-25T12:29:54.583Z,1500.00
2018-01-25T12:30:54.603Z,1512.00
2018-01-25T12:31:54.623Z,1636.00
2018-01-25T12:32:54.642Z,1580.00
2018-01-25T12:33:54.662Z,1864.00
2018-01-25T12:34:54.682Z,1856.00
2018-01-25T12:35:54.704Z,1960.00
2018-01-25T12:36:54.721Z,2184.00
2018-01-25T12:37:54.741Z,2460.00
2018-01-25T12:38:54.761Z,2624.00
2018-01-25T12:39:54.781Z,2868.00
2018-01-25T12:40:54.800Z,3056.00
2018-01-25T12:41:54.820Z,3108.00
2018-01-25T12:42:54.843Z,3004.00
2018-01-25T12:43:54.861Z,2580.00
2018-01-25T12:44:54.879Z,2532.00
2018-01-25T12:45:54.899Z,2396.00
2018-01-25T12:46:54.919Z,2068.00